La Palma Islan, Spain
Current Conditions -  °F | °C
As of 9:30 PM on Friday 28 Nov 2014 (Local Time) from GCLA Reporting Station
Scattered Clouds Scattered Clouds  
Wind Chill: 70°   Ceiling: Unl
Heat Index: 70°   Visibility: 6mi
Dew Point: 48°   Wind: 8mph
Humidity: 46%   Direction: 350°N
Pressure: 29.56"   Gusts: NA
Location:  28.62°N, 17.75°W
Report Text: GCLA 282130Z 35007KT 230V020 9999 SCT040 21/09 Q1001 WS R01
Loading
Personal Weather Stations






























Interactive Weather Map New forecast layout! Learn more

10-Day Weather Forecast

Advertisements
Track Severe Weather on mobile